Time;durP1;ratioP1;P1;durP2;ratioP2;P2;SDS_P1;SDS_P2;PMS_P1;PMS_P2;Temp;Humidity;BMP_temperature;BMP_pressure;BME280_temperature;BME280_humidity;BME280_pressure;Samples;Min_cycle;Max_cycle;Signal;HPM_P1;HPM_P2
2023/03/27 00:01:37;;;;;;;3.35;1.62;;;;;;;9.37;77.04;100346.22;1868413;77;21054;-46
2023/03/27 00:04:07;;;;;;;5.33;2.20;;;;;;;9.38;77.00;100354.95;1868598;77;21095;-46
2023/03/27 00:06:36;;;;;;;3.75;2.15;;;;;;;9.35;77.26;100352.00;1868687;77;21062;-45
2023/03/27 00:09:07;;;;;;;5.00;2.20;;;;;;;9.34;77.14;100356.00;1869883;77;21104;-46
2023/03/27 00:11:35;;;;;;;3.80;1.95;;;;;;;9.35;77.15;100355.06;1869930;77;21128;-47
2023/03/27 00:14:04;;;;;;;4.42;2.25;;;;;;;9.34;77.13;100354.22;1864776;76;21089;-46
2023/03/27 00:16:33;;;;;;;2.30;1.20;;;;;;;9.35;77.14;100356.38;1860484;77;21563;-45
2023/03/27 00:19:01;;;;;;;2.35;1.42;;;;;;;9.37;77.39;100352.80;1860633;77;21054;-44
2023/03/27 00:21:33;;;;;;;1.95;1.00;;;;;;;9.41;77.33;100356.16;1860664;77;21531;-44
2023/03/27 00:24:01;;;;;;;2.47;1.60;;;;;;;9.42;77.34;100356.06;1860564;77;21422;-43
2023/03/27 00:26:30;;;;;;;2.90;1.62;;;;;;;9.45;77.28;100348.06;1860553;77;21497;-47
2023/03/27 00:28:59;;;;;;;2.17;1.20;;;;;;;9.50;77.26;100359.72;1860594;77;21014;-43
2023/03/27 00:31:27;;;;;;;2.45;1.20;;;;;;;9.55;77.14;100351.63;1860801;77;21078;-46
2023/03/27 00:33:56;;;;;;;2.62;1.30;;;;;;;9.56;77.03;100352.89;1860549;77;21116;-42
2023/03/27 00:36:25;;;;;;;2.42;1.22;;;;;;;9.59;76.92;100354.09;1858865;77;21124;-42
2023/03/27 00:38:53;;;;;;;3.12;1.12;;;;;;;9.62;76.87;100353.94;1860621;77;21057;-42
2023/03/27 00:41:23;;;;;;;2.62;1.30;;;;;;;9.63;76.87;100350.88;1860833;77;21074;-43
2023/03/27 00:43:55;;;;;;;3.47;1.90;;;;;;;9.65;76.83;100345.09;1860567;77;21540;-42
2023/03/27 00:46:30;;;;;;;2.90;1.55;;;;;;;9.70;76.73;100338.31;1853071;77;21183;-42
2023/03/27 00:49:01;;;;;;;3.05;1.35;;;;;;;9.74;76.67;100337.26;1902707;75;21033;-43
2023/03/27 00:51:31;;;;;;;6.03;1.77;;;;;;;9.74;76.67;100336.83;1903059;75;21040;-42
2023/03/27 00:54:00;;;;;;;2.50;1.40;;;;;;;9.75;76.70;100335.04;1902984;75;21094;-42
2023/03/27 00:56:29;;;;;;;3.02;1.65;;;;;;;9.74;76.72;100323.67;1928195;74;21102;-42
2023/03/27 00:59:01;;;;;;;1.75;1.05;;;;;;;9.77;76.63;100322.68;1903929;74;21519;-43
2023/03/27 01:01:30;;;;;;;2.77;1.37;;;;;;;9.79;76.68;100324.78;1902405;75;21094;-42
2023/03/27 01:04:02;;;;;;;3.42;1.70;;;;;;;9.81;76.58;100321.63;1902647;75;21033;-43
2023/03/27 01:06:32;;;;;;;2.37;1.20;;;;;;;9.83;76.69;100307.95;1902335;75;21041;-42
2023/03/27 01:09:00;;;;;;;4.17;1.87;;;;;;;9.84;76.83;100314.92;1902501;75;21549;-43
2023/03/27 01:11:44;;;;;;;3.72;1.77;;;;;;;9.85;76.89;100317.97;1902555;75;21103;-43
2023/03/27 01:14:31;;;;;;;2.87;1.55;;;;;;;9.84;77.17;100313.61;1902541;75;21206;-42
2023/03/27 01:17:25;;;;;;;2.02;1.20;;;;;;;9.85;77.09;100310.92;1898552;75;21111;-45
2023/03/27 01:19:59;;;;;;;2.67;1.52;;;;;;;9.90;76.94;100310.71;1870786;77;21024;-43
2023/03/27 01:22:51;;;;;;;3.27;1.37;;;;;;;9.90;76.96;100313.81;1897067;75;21103;-47
2023/03/27 01:25:34;;;;;;;3.05;1.20;;;;;;;9.90;77.02;100310.71;1902956;75;21065;-47
2023/03/27 01:28:14;;;;;;;3.70;1.07;;;;;;;9.92;76.92;100309.34;1822504;75;21086;-46
2023/03/27 01:30:55;;;;;;;2.83;1.20;;;;;;;9.91;77.03;100315.06;1900650;75;21645;-45
2023/03/27 01:33:37;;;;;;;2.55;1.40;;;;;;;9.92;77.14;100321.17;1899478;75;21069;-45
2023/03/27 01:36:30;;;;;;;1.52;1.10;;;;;;;9.94;77.02;100317.57;1901180;75;21111;-45
2023/03/27 01:39:05;;;;;;;1.77;1.25;;;;;;;9.96;77.03;100323.62;1901122;75;21045;-45
2023/03/27 01:41:37;;;;;;;3.12;1.37;;;;;;;9.98;77.12;100323.09;1900684;75;21127;-44
2023/03/27 01:44:14;;;;;;;1.98;1.35;;;;;;;10.02;77.00;100330.39;1901236;75;21025;-46
2023/03/27 01:46:51;;;;;;;2.05;0.93;;;;;;;10.05;77.10;100332.86;1902905;75;21065;-47
2023/03/27 01:49:29;;;;;;;1.20;1.00;;;;;;;10.07;77.16;100328.42;1902843;75;21037;-47
2023/03/27 01:52:03;;;;;;;1.50;0.80;;;;;;;10.08;77.25;100324.00;1902453;75;21207;-42
2023/03/27 01:54:42;;;;;;;1.82;1.00;;;;;;;10.09;77.46;100334.90;1894539;75;21079;-41
2023/03/27 01:57:26;;;;;;;2.00;1.10;;;;;;;10.11;77.56;100333.09;1885049;75;21508;-42
2023/03/27 02:00:09;;;;;;;1.75;1.10;;;;;;;10.13;77.80;100332.09;1902630;75;21468;-43
2023/03/27 02:02:35;;;;;;;4.35;1.57;;;;;;;10.15;77.84;100337.28;1901939;75;21150;-45
2023/03/27 02:05:15;;;;;;;4.53;1.82;;;;;;;10.15;78.10;100324.13;1903143;75;21028;-45
2023/03/27 02:07:47;;;;;;;5.08;2.35;;;;;;;10.14;78.59;100336.41;1901428;75;21115;-46
2023/03/27 02:10:19;;;;;;;2.67;1.40;;;;;;;10.13;78.78;100332.55;1902337;75;21025;-44
2023/03/27 02:12:50;;;;;;;4.85;2.40;;;;;;;10.14;78.63;100333.78;1902789;75;21118;-45
2023/03/27 02:15:22;;;;;;;5.20;2.30;;;;;;;10.13;78.66;100329.92;1902992;74;21037;-45
2023/03/27 02:17:55;;;;;;;4.35;2.50;;;;;;;10.11;78.74;100333.94;1902948;75;21492;-45
2023/03/27 02:20:24;;;;;;;3.37;1.90;;;;;;;10.09;78.64;100331.83;1903089;75;21049;-42
2023/03/27 02:22:54;;;;;;;2.92;1.65;;;;;;;10.07;78.74;100336.31;1902776;75;21068;-44
2023/03/27 02:25:25;;;;;;;4.50;2.30;;;;;;;10.04;78.77;100333.80;1903030;75;21017;-45
2023/03/27 02:28:28;;;;;;;5.62;2.12;;;;;;;10.02;78.82;100334.33;1903002;75;21464;-43
2023/03/27 02:31:13;;;;;;;4.03;1.87;;;;;;;10.01;78.91;100337.43;1903157;75;21072;-42
2023/03/27 02:33:43;;;;;;;;;;;;;;;10.00;79.01;100342.28;1905829;75;21566;-44
2023/03/27 02:36:29;;;;;;;4.00;1.35;;;;;;;10.00;78.98;100342.75;1900248;75;20150;-45
2023/03/27 02:39:09;;;;;;;2.85;1.37;;;;;;;9.98;78.97;100340.19;1883709;75;21017;-46
2023/03/27 02:42:10;;;;;;;3.55;2.10;;;;;;;9.98;79.37;100345.91;1857770;75;21058;-44
2023/03/27 02:44:50;;;;;;;3.20;1.55;;;;;;;9.97;79.10;100353.39;1857321;77;21569;-44
2023/03/27 02:47:34;;;;;;;2.70;1.32;;;;;;;9.98;79.35;100345.44;1884551;75;21048;-42
2023/03/27 02:50:18;;;;;;;4.45;2.15;;;;;;;10.01;79.40;100351.90;1902543;75;21104;-41
2023/03/27 02:52:57;;;;;;;6.97;2.42;;;;;;;10.03;79.37;100348.73;1902598;75;21142;-44
2023/03/27 02:55:36;;;;;;;5.08;2.62;;;;;;;10.04;79.35;100350.43;1903087;75;21134;-45
2023/03/27 02:58:05;;;;;;;4.37;2.42;;;;;;;10.04;79.50;100350.43;1879923;75;21128;-45
2023/03/27 03:00:42;;;;;;;1.65;1.40;;;;;;;10.04;79.52;100362.27;1858628;75;21054;-43
2023/03/27 03:03:27;;;;;;;3.72;1.95;;;;;;;10.05;79.57;100371.88;1870892;75;21535;-46
2023/03/27 03:05:58;;;;;;;7.97;2.62;;;;;;;10.06;79.35;100368.78;1902041;74;21116;-44
2023/03/27 03:08:29;;;;;;;1.65;1.30;;;;;;;10.08;79.31;100370.89;1931473;74;21529;-45
2023/03/27 03:11:10;;;;;;;7.40;2.05;;;;;;;10.10;79.30;100370.83;1928747;74;21059;-44
2023/03/27 03:13:40;;;;;;;2.40;1.12;;;;;;;10.12;79.22;100384.77;1858886;75;21493;-44
2023/03/27 03:16:10;;;;;;;3.98;2.45;;;;;;;10.13;79.33;100381.23;1856836;77;21096;-42
2023/03/27 03:18:38;;;;;;;10.98;5.12;;;;;;;10.10;79.41;100379.56;1861861;77;21061;-46
2023/03/27 03:21:07;;;;;;;7.33;4.05;;;;;;;10.09;79.41;100404.61;1864938;75;21045;-42
2023/03/27 03:23:37;;;;;;;7.55;3.47;;;;;;;10.03;79.59;100393.89;1861920;77;21481;-38
2023/03/27 03:26:07;;;;;;;7.70;3.55;;;;;;;10.03;79.68;100399.16;1861853;77;21123;-37
2023/03/27 03:28:37;;;;;;;11.85;5.47;;;;;;;10.03;79.61;100400.03;1860256;77;21093;-36
2023/03/27 03:31:09;;;;;;;11.03;4.95;;;;;;;10.00;79.63;100400.15;1861990;77;21050;-38
2023/03/27 03:33:37;;;;;;;9.45;4.50;;;;;;;9.99;79.74;100416.84;1902507;75;21052;-40
2023/03/27 03:36:06;;;;;;;11.43;4.45;;;;;;;9.97;79.95;100410.79;1909472;75;21505;-43
2023/03/27 03:38:36;;;;;;;7.20;3.33;;;;;;;9.95;80.15;100413.09;1909104;75;21149;-43
2023/03/27 03:41:06;;;;;;;13.75;4.78;;;;;;;9.95;80.21;100413.09;1909379;75;21523;-42
2023/03/27 03:43:35;;;;;;;8.15;3.22;;;;;;;9.96;80.22;100421.37;1905911;75;21021;-43
2023/03/27 03:46:04;;;;;;;5.90;3.00;;;;;;;9.95;80.30;100411.78;1909154;75;21170;-43
2023/03/27 03:48:32;;;;;;;8.70;4.08;;;;;;;9.91;80.44;100422.89;1909285;75;21118;-42
2023/03/27 03:51:01;;;;;;;13.15;5.17;;;;;;;9.92;80.28;100427.22;1909220;75;21117;-42
2023/03/27 03:53:30;;;;;;;9.55;3.00;;;;;;;9.93;80.25;100426.31;1906070;75;21130;-43
2023/03/27 03:55:59;;;;;;;14.23;3.15;;;;;;;9.93;80.39;100432.88;1909251;75;21048;-43
2023/03/27 03:58:28;;;;;;;5.35;2.62;;;;;;;9.92;80.40;100444.31;1909249;75;21475;-43
2023/03/27 04:00:57;;;;;;;7.15;2.70;;;;;;;9.91;80.33;100442.61;1909210;75;21017;-43
2023/03/27 04:03:30;;;;;;;3.77;2.60;;;;;;;9.92;80.23;100444.31;1904575;75;21272;-42
2023/03/27 04:06:03;;;;;;;6.03;2.37;;;;;;;9.93;80.13;100445.19;1909161;75;21064;-42
2023/03/27 04:08:32;;;;;;;6.40;2.90;;;;;;;9.91;80.03;100450.50;1909339;75;21115;-43
2023/03/27 04:11:05;;;;;;;6.67;1.25;;;;;;;9.91;79.93;100449.19;1909182;75;21079;-43
2023/03/27 04:13:38;;;;;;;5.35;2.00;;;;;;;9.94;79.85;100454.34;1906939;75;21057;-42
2023/03/27 04:16:09;;;;;;;4.65;2.08;;;;;;;9.94;79.79;100454.34;1857349;76;21110;-43
2023/03/27 04:18:40;;;;;;;7.15;2.45;;;;;;;9.96;79.72;100457.75;1848897;77;21130;-43
2023/03/27 04:21:14;;;;;;;6.35;2.33;;;;;;;9.99;79.68;100462.02;1849289;77;21073;-42
2023/03/27 04:23:43;;;;;;;2.95;1.70;;;;;;;9.99;79.68;100458.92;1849283;77;21034;-43
2023/03/27 04:26:14;;;;;;;4.90;1.90;;;;;;;10.01;79.64;100459.75;1853114;75;21066;-42
2023/03/27 04:29:01;;;;;;;5.22;1.60;;;;;;;10.04;79.51;100458.75;1849485;77;21049;-42
2023/03/27 04:31:38;;;;;;;3.35;1.60;;;;;;;10.07;79.50;100464.33;1846303;77;21046;-42
2023/03/27 04:34:11;;;;;;;1.92;0.95;;;;;;;10.04;79.47;100464.02;1846464;77;21504;-43
2023/03/27 04:36:47;;;;;;;6.85;1.60;;;;;;;10.02;79.47;100458.80;1868536;75;21479;-42
2023/03/27 04:39:21;;;;;;;7.80;1.20;;;;;;;10.02;79.47;100458.80;1902131;75;21079;-42
2023/03/27 04:41:50;;;;;;;3.85;1.40;;;;;;;10.01;79.47;100457.11;1903278;75;21578;-42
2023/03/27 04:44:18;;;;;;;2.98;1.70;;;;;;;10.00;79.50;100459.80;1873856;75;21045;-42
2023/03/27 04:46:48;;;;;;;4.20;1.80;;;;;;;9.99;79.48;100453.66;1849526;77;21054;-43
2023/03/27 04:49:19;;;;;;;2.70;1.30;;;;;;;10.01;79.43;100461.06;1849514;77;21065;-43
2023/03/27 04:51:56;;;;;;;5.97;1.35;;;;;;;9.99;79.47;100461.55;1849013;77;21135;-43
2023/03/27 04:54:30;;;;;;;2.40;1.30;;;;;;;9.98;79.46;100459.02;1852809;75;21526;-43
2023/03/27 04:56:57;;;;;;;6.67;1.95;;;;;;;9.97;79.58;100467.81;1849259;77;21153;-43
2023/03/27 04:59:30;;;;;;;2.52;1.35;;;;;;;9.98;79.60;100467.75;1849700;77;21100;-42
2023/03/27 05:02:15;;;;;;;3.00;1.40;;;;;;;9.98;79.87;100466.44;1809672;79;21102;-42
2023/03/27 05:04:45;;;;;;;2.62;1.30;;;;;;;9.99;79.97;100470.76;1839938;75;21484;-41
2023/03/27 05:07:18;;;;;;;3.70;1.50;;;;;;;10.00;79.98;100473.80;1849239;77;21124;-43
2023/03/27 05:09:48;;;;;;;5.20;1.50;;;;;;;9.99;79.98;100473.39;1849595;77;21117;-42
2023/03/27 05:12:16;;;;;;;4.92;1.50;;;;;;;10.05;79.91;100473.59;1849544;77;21480;-42
2023/03/27 05:14:50;;;;;;;4.35;1.60;;;;;;;10.10;79.80;100481.31;1853092;75;21062;-42
2023/03/27 05:17:45;;;;;;;4.20;1.60;;;;;;;10.14;79.80;100475.00;1849016;77;21085;-43
2023/03/27 05:20:16;;;;;;;4.33;2.10;;;;;;;10.23;79.61;100478.09;1855949;77;21144;-42
2023/03/27 05:22:46;;;;;;;6.37;1.82;;;;;;;10.30;79.42;100480.02;1861842;77;21069;-42
2023/03/27 05:25:29;;;;;;;6.20;1.62;;;;;;;10.36;79.29;100475.84;1865104;75;21126;-42
2023/03/27 05:27:59;;;;;;;4.85;1.67;;;;;;;10.42;79.07;100480.86;1861827;77;21115;-42
2023/03/27 05:30:30;;;;;;;2.05;1.27;;;;;;;10.49;78.86;100481.91;1864489;75;21068;-43
2023/03/27 05:33:06;;;;;;;4.42;1.50;;;;;;;10.54;78.69;100481.25;1852722;77;21089;-43
2023/03/27 05:35:36;;;;;;;2.95;1.52;;;;;;;10.57;78.48;100478.50;1864912;75;21025;-43
2023/03/27 05:38:05;;;;;;;2.00;1.07;;;;;;;10.64;78.33;100485.19;1861718;77;21534;-43
2023/03/27 05:40:36;;;;;;;6.40;2.25;;;;;;;10.75;78.16;100489.55;1861749;77;21220;-43
2023/03/27 05:43:06;;;;;;;5.80;1.42;;;;;;;10.80;78.03;100495.91;1861785;77;21512;-43
2023/03/27 05:45:35;;;;;;;4.75;1.70;;;;;;;10.91;77.97;100500.72;1861835;77;21491;-43
2023/03/27 05:48:04;;;;;;;3.50;1.42;;;;;;;10.97;77.80;100503.95;1905456;75;21130;-43
2023/03/27 05:50:36;;;;;;;6.97;1.75;;;;;;;10.97;77.63;100504.39;1908728;75;21115;-42
2023/03/27 05:53:09;;;;;;;2.85;1.30;;;;;;;10.97;77.60;100505.70;1909124;75;21041;-43
2023/03/27 05:55:39;;;;;;;2.65;1.30;;;;;;;10.98;77.57;100512.70;1909033;75;21122;-42
2023/03/27 05:58:10;;;;;;;5.95;1.60;;;;;;;10.95;77.54;100513.67;1905770;75;21032;-42
2023/03/27 06:00:41;;;;;;;3.65;1.10;;;;;;;10.88;77.67;100509.62;1909315;75;21037;-43
2023/03/27 06:03:12;;;;;;;2.20;0.93;;;;;;;10.87;77.89;100507.90;1909255;75;21114;-43
2023/03/27 06:06:01;;;;;;;1.10;0.80;;;;;;;10.96;77.87;100509.28;1908822;75;21436;-42
2023/03/27 06:08:31;;;;;;;2.52;0.95;;;;;;;11.07;77.73;100516.23;1901731;75;21118;-42
2023/03/27 06:11:00;;;;;;;1.92;0.90;;;;;;;11.26;77.58;100519.36;1905723;75;21114;-42
2023/03/27 06:13:33;;;;;;;1.00;0.75;;;;;;;11.46;77.33;100521.94;1907927;75;21091;-42
2023/03/27 06:16:04;;;;;;;4.60;1.20;;;;;;;11.47;76.56;100526.30;1908400;75;21071;-42
2023/03/27 06:18:51;;;;;;;4.20;0.70;;;;;;;11.46;76.79;100527.21;1879252;75;21057;-42
2023/03/27 06:21:20;;;;;;;3.00;0.93;;;;;;;11.41;76.64;100527.88;1861997;76;21552;-42
2023/03/27 06:23:50;;;;;;;1.65;0.65;;;;;;;11.40;76.60;100524.39;1864093;76;21078;-43
2023/03/27 06:26:18;;;;;;;1.47;0.93;;;;;;;11.43;76.39;100519.43;1859629;77;21046;-42
2023/03/27 06:28:47;;;;;;;5.30;1.10;;;;;;;11.46;76.40;100532.95;1876195;76;21019;-43
2023/03/27 06:31:18;;;;;;;1.50;1.07;;;;;;;11.44;76.37;100525.11;1891725;76;21067;-42
2023/03/27 06:33:57;;;;;;;3.72;1.32;;;;;;;11.36;76.39;100537.33;1869592;76;21045;-42
2023/03/27 06:36:42;;;;;;;1.80;0.93;;;;;;;11.24;76.49;100526.48;1893715;76;21533;-42
2023/03/27 06:39:12;;;;;;;2.40;0.70;;;;;;;11.14;76.57;100549.30;1880314;76;21489;-42
2023/03/27 06:41:42;;;;;;;4.87;1.50;;;;;;;11.01;76.92;100544.16;1861934;77;21090;-42
2023/03/27 06:44:16;;;;;;;6.12;1.50;;;;;;;10.93;77.07;100547.60;1852646;76;21069;-42
2023/03/27 06:46:49;;;;;;;5.92;1.90;;;;;;;10.86;77.52;100548.31;1890460;76;21476;-42
2023/03/27 06:49:20;;;;;;;3.77;1.40;;;;;;;10.77;78.33;100564.08;1893665;76;21176;-41
2023/03/27 06:51:48;;;;;;;4.28;1.32;;;;;;;10.65;78.51;100573.80;1894200;76;21132;-42
2023/03/27 06:54:17;;;;;;;2.25;1.20;;;;;;;10.55;78.97;100565.87;1894314;76;21046;-43
2023/03/27 06:56:47;;;;;;;2.83;1.15;;;;;;;10.49;79.54;100574.04;1883904;76;21118;-42
2023/03/27 06:59:18;;;;;;;5.53;1.70;;;;;;;10.49;79.60;100583.25;1862123;77;21058;-42
2023/03/27 07:01:47;;;;;;;4.45;1.92;;;;;;;10.46;79.60;100591.27;1862177;77;21051;-47
2023/03/27 07:04:17;;;;;;;8.38;2.70;;;;;;;10.44;79.67;100599.25;1855680;76;21245;-44
2023/03/27 07:06:50;;;;;;;6.62;1.40;;;;;;;10.39;79.71;100598.11;1893064;76;21057;-42
2023/03/27 07:09:19;;;;;;;4.75;1.85;;;;;;;10.40;79.58;100604.22;1894282;76;21082;-43
2023/03/27 07:11:49;;;;;;;4.55;1.47;;;;;;;10.41;79.52;100600.69;1892246;76;21122;-43
2023/03/27 07:14:18;;;;;;;3.10;1.80;;;;;;;10.47;79.38;100602.20;1891880;76;21128;-42
2023/03/27 07:16:47;;;;;;;4.92;1.77;;;;;;;10.53;79.22;100613.80;1894335;76;21570;-42
2023/03/27 07:19:16;;;;;;;5.62;2.02;;;;;;;10.61;79.09;100607.77;1894210;76;21058;-42
2023/03/27 07:21:46;;;;;;;4.00;1.80;;;;;;;10.67;78.87;100610.14;1883708;76;21172;-41
2023/03/27 07:24:15;;;;;;;3.47;1.40;;;;;;;10.77;78.74;100615.44;1866274;76;21179;-42
2023/03/27 07:26:44;;;;;;;2.37;1.12;;;;;;;10.85;78.32;100611.62;1829649;78;21523;-42
2023/03/27 07:29:24;;;;;;;3.12;1.75;;;;;;;10.96;78.02;100609.39;1829681;78;21654;-42
2023/03/27 07:31:55;;;;;;;3.65;3.17;;;;;;;11.06;77.77;100622.55;1829621;78;21120;-41
2023/03/27 07:34:26;;;;;;;2.12;1.67;;;;;;;11.16;77.66;100622.55;1832322;76;21139;-42
2023/03/27 07:37:10;;;;;;;2.20;2.00;;;;;;;11.20;77.09;100610.95;1868460;76;21043;-42
2023/03/27 07:39:40;;;;;;;2.60;1.67;;;;;;;11.27;76.79;100618.58;1874748;76;21110;-42
2023/03/27 07:42:09;;;;;;;3.08;1.45;;;;;;;11.50;76.63;100628.97;1875600;76;21531;-42
2023/03/27 07:44:55;;;;;;;2.35;1.42;;;;;;;11.96;75.74;100619.45;1871422;76;21121;-43
2023/03/27 07:47:25;;;;;;;1.55;0.98;;;;;;;12.82;74.64;100623.67;1875504;76;21106;-42
2023/03/27 07:49:54;;;;;;;1.50;0.75;;;;;;;13.49;73.25;100619.38;1875444;76;21050;-46
2023/03/27 07:52:23;;;;;;;1.32;0.93;;;;;;;13.93;72.34;100620.09;1875406;76;21699;-43
2023/03/27 07:54:55;;;;;;;1.70;1.32;;;;;;;14.38;69.25;100621.58;1874733;76;21111;-42
2023/03/27 07:57:25;;;;;;;3.12;1.40;;;;;;;15.68;67.54;100620.95;1872044;76;21153;-42
2023/03/27 07:59:56;;;;;;;1.72;1.00;;;;;;;16.07;65.24;100623.89;1874584;76;21096;-42
2023/03/27 08:02:26;;;;;;;4.72;3.37;;;;;;;15.98;64.08;100622.66;1874683;76;21106;-42
2023/03/27 08:04:55;;;;;;;3.25;2.65;;;;;;;15.55;64.87;100622.67;1875397;76;21137;-42
2023/03/27 08:07:24;;;;;;;1.75;1.65;;;;;;;15.37;65.33;100624.64;1872274;76;21493;-43
2023/03/27 08:09:56;;;;;;;1.70;1.10;;;;;;;15.23;65.51;100623.69;1875024;76;21121;-43
2023/03/27 08:12:25;;;;;;;1.50;0.70;;;;;;;14.88;65.56;100627.09;1875422;76;21549;-42
2023/03/27 08:14:55;;;;;;;2.02;1.10;;;;;;;14.60;66.52;100632.67;1874563;76;21141;-43
2023/03/27 08:17:31;;;;;;;3.50;1.90;;;;;;;14.36;66.22;100635.38;1875260;76;21166;-42
2023/03/27 08:20:07;;;;;;;1.35;0.80;;;;;;;14.12;66.14;100633.64;1872236;76;21035;-42
2023/03/27 08:22:32;;;;;;;1.40;1.10;;;;;;;14.06;64.73;100619.80;1874795;76;21098;-42
2023/03/27 08:25:09;;;;;;;1.47;0.80;;;;;;;13.83;64.58;100626.37;1831385;76;21132;-42
2023/03/27 08:27:39;;;;;;;1.92;1.40;;;;;;;13.85;64.97;100633.75;1875458;76;21074;-42
2023/03/27 08:30:10;;;;;;;3.52;1.10;;;;;;;13.90;65.05;100639.63;1854885;76;21128;-42
2023/03/27 08:32:41;;;;;;;0.72;0.60;;;;;;;13.94;64.50;100639.47;1829684;78;21128;-42
2023/03/27 08:35:10;;;;;;;2.33;1.15;;;;;;;14.22;64.84;100647.61;1829683;78;21061;-42
2023/03/27 08:37:42;;;;;;;2.90;0.90;;;;;;;14.54;64.15;100648.06;1868449;76;21055;-42
2023/03/27 08:40:33;;;;;;;1.40;0.62;;;;;;;14.90;62.67;100652.20;1875428;76;21062;-42
2023/03/27 08:43:15;;;;;;;1.95;0.88;;;;;;;15.91;62.44;100655.86;1845994;76;21137;-42
2023/03/27 08:45:54;;;;;;;0.98;0.62;;;;;;;16.59;59.96;100650.57;1873592;76;21440;-46
2023/03/27 08:48:36;;;;;;;0.60;0.40;;;;;;;16.79;59.97;100652.40;1901139;75;21012;-42
2023/03/27 08:51:12;;;;;;;0.65;0.40;;;;;;;16.39;58.39;100663.82;1905801;75;21082;-43
2023/03/27 08:53:57;;;;;;;3.65;0.75;;;;;;;16.06;58.99;100670.81;1908051;75;21125;-43
2023/03/27 08:56:27;;;;;;;1.42;0.60;;;;;;;16.34;59.23;100682.34;1888271;75;21109;-42
2023/03/27 08:58:57;;;;;;;0.85;0.30;;;;;;;15.79;56.88;100679.58;1829529;78;21422;-43
2023/03/27 09:01:44;;;;;;;2.87;0.53;;;;;;;15.39;57.98;100687.27;1829567;77;21136;-42
2023/03/27 09:04:20;;;;;;;0.60;0.45;;;;;;;15.03;59.01;100677.91;1829618;78;21449;-43
2023/03/27 09:07:05;;;;;;;1.35;0.40;;;;;;;14.68;60.07;100670.66;1836062;76;21122;-43
2023/03/27 09:09:41;;;;;;;0.45;0.30;;;;;;;14.53;60.82;100687.41;1875478;75;21172;-43
2023/03/27 09:12:31;;;;;;;0.50;0.30;;;;;;;14.72;61.26;100699.16;1875508;76;21501;-43
2023/03/27 09:15:15;;;;;;;2.02;0.50;;;;;;;15.07;60.94;100705.11;1875420;76;21074;-43
2023/03/27 09:17:55;;;;;;;0.55;0.30;;;;;;;15.13;60.40;100688.83;1858192;75;21127;-43
2023/03/27 09:20:31;;;;;;;0.68;0.53;;;;;;;14.80;60.55;100702.25;1829792;78;21140;-43
2023/03/27 09:23:12;;;;;;;0.88;0.60;;;;;;;14.69;60.95;100709.95;1829615;78;21527;-43
2023/03/27 09:25:56;;;;;;;0.40;0.40;;;;;;;14.63;60.62;100715.98;1813858;77;21073;-43
2023/03/27 09:28:34;;;;;;;0.40;0.40;;;;;;;15.08;60.31;100711.25;1851583;76;21023;-43
2023/03/27 09:31:29;;;;;;;0.57;0.40;;;;;;;16.04;59.89;100712.56;1875237;76;21095;-43
2023/03/27 09:34:00;;;;;;;0.30;0.30;;;;;;;16.69;59.17;100716.42;1855439;76;21043;-43
2023/03/27 09:36:29;;;;;;;0.28;0.28;;;;;;;16.47;57.43;100721.82;1873623;76;21047;-43
2023/03/27 09:39:12;;;;;;;0.30;0.30;;;;;;;16.15;58.75;100722.03;1849294;76;21073;-43
2023/03/27 09:42:02;;;;;;;0.20;0.20;;;;;;;15.82;59.50;100723.66;1829641;78;21061;-43
2023/03/27 09:44:34;;;;;;;0.57;0.20;;;;;;;15.43;59.25;100733.05;1829396;77;21022;-42
2023/03/27 09:47:14;;;;;;;0.72;0.30;;;;;;;15.00;59.66;100737.74;1829689;78;21038;-43
2023/03/27 09:49:49;;;;;;;0.68;0.40;;;;;;;14.92;60.44;100740.44;1824571;76;21066;-44
2023/03/27 09:52:38;;;;;;;0.68;0.30;;;;;;;14.82;60.75;100736.14;1828800;78;21136;-43
2023/03/27 09:55:29;;;;;;;2.20;0.60;;;;;;;14.64;60.72;100742.88;1829715;78;21057;-43
2023/03/27 09:58:19;;;;;;;1.77;0.70;;;;;;;14.62;61.37;100744.73;1860027;76;21105;-44
2023/03/27 10:00:49;;;;;;;1.30;0.55;;;;;;;14.64;61.75;100748.18;1875358;76;21141;-44
2023/03/27 10:03:19;;;;;;;0.57;0.40;;;;;;;14.48;61.63;100749.94;1875319;76;21140;-46
2023/03/27 10:05:52;;;;;;;1.45;1.02;;;;;;;14.15;61.29;100744.21;1875104;76;21137;-44
2023/03/27 10:08:43;;;;;;;1.95;0.70;;;;;;;13.86;61.58;100758.99;1868690;75;21027;-45
2023/03/27 10:11:25;;;;;;;0.60;0.53;;;;;;;13.80;61.96;100758.84;1874222;76;21031;-44
2023/03/27 10:13:56;;;;;;;1.22;0.50;;;;;;;13.97;62.17;100768.55;1875483;75;21091;-44
2023/03/27 10:16:28;;;;;;;2.17;0.65;;;;;;;14.19;62.12;100757.66;1875509;76;21175;-43
2023/03/27 10:19:00;;;;;;;0.47;0.40;;;;;;;14.28;62.04;100757.65;1870696;76;21181;-43
2023/03/27 10:21:33;;;;;;;1.98;0.40;;;;;;;14.23;61.78;100768.95;1875099;76;21493;-44
2023/03/27 10:24:10;;;;;;;4.55;1.00;;;;;;;14.31;61.77;100775.16;1886848;76;21074;-44
2023/03/27 10:26:55;;;;;;;;;;;;;;;14.52;60.81;100748.82;1826696;78;21226;-45
2023/03/27 10:29:27;;;;;;;2.08;1.02;;;;;;;14.60;60.78;100757.22;1858816;76;20114;-45
2023/03/27 10:31:58;;;;;;;2.83;1.10;;;;;;;14.90;60.68;100772.34;1862286;77;21109;-44
2023/03/27 10:34:42;;;;;;;3.50;1.10;;;;;;;14.97;60.11;100761.77;1861719;77;21106;-45
2023/03/27 10:37:30;;;;;;;3.65;1.10;;;;;;;14.94;59.86;100769.05;1861752;76;21592;-44
2023/03/27 10:40:08;;;;;;;0.93;0.70;;;;;;;15.02;59.09;100770.80;1835466;77;21182;-45
2023/03/27 10:42:39;;;;;;;1.17;0.70;;;;;;;15.27;59.52;100773.36;1862383;76;21557;-44
2023/03/27 10:45:09;;;;;;;1.82;0.60;;;;;;;15.71;58.65;100781.34;1862063;77;21049;-45
2023/03/27 10:47:38;;;;;;;0.98;0.57;;;;;;;16.11;57.65;100777.63;1862714;76;21500;-44
2023/03/27 10:50:37;;;;;;;1.65;0.70;;;;;;;16.48;56.67;100774.00;1873857;76;21116;-45
2023/03/27 10:53:18;;;;;;;2.75;0.88;;;;;;;16.39;56.67;100770.60;1892655;76;21105;-43
2023/03/27 10:56:03;;;;;;;1.55;0.80;;;;;;;15.95;55.97;100778.19;1894181;74;21674;-42
2023/03/27 10:58:47;;;;;;;0.60;0.60;;;;;;;15.07;57.02;100776.70;1891972;76;21156;-43
2023/03/27 11:01:37;;;;;;;1.07;0.53;;;;;;;14.75;58.29;100774.05;1894446;76;21125;-42
2023/03/27 11:04:18;;;;;;;2.15;0.62;;;;;;;14.71;58.86;100773.00;1894209;76;21070;-43
2023/03/27 11:06:53;;;;;;;0.90;0.57;;;;;;;14.76;58.98;100772.28;1893937;74;21102;-43
2023/03/27 11:09:31;;;;;;;1.40;0.80;;;;;;;14.96;59.36;100781.77;1865117;76;21066;-43
2023/03/27 11:12:15;;;;;;;1.57;0.88;;;;;;;15.15;59.20;100788.20;1861982;77;21110;-44
2023/03/27 11:14:55;;;;;;;0.80;0.60;;;;;;;15.20;59.02;100784.81;1861475;77;21153;-43
2023/03/27 11:17:28;;;;;;;0.90;0.70;;;;;;;15.29;59.00;100790.91;1862436;76;21521;-46
2023/03/27 11:20:07;;;;;;;0.50;0.50;;;;;;;15.44;59.02;100783.38;1830832;77;21050;-41
2023/03/27 11:22:56;;;;;;;1.67;0.50;;;;;;;15.57;59.04;100781.33;1862433;77;21132;-41
2023/03/27 11:25:48;;;;;;;1.47;0.53;;;;;;;15.67;58.87;100775.84;1844680;77;21070;-42
2023/03/27 11:28:45;;;;;;;0.78;0.50;;;;;;;15.51;58.68;100786.98;1799789;77;21068;-43
2023/03/27 11:31:30;;;;;;;1.60;0.93;;;;;;;15.36;58.98;100791.39;1850254;77;21070;-42
2023/03/27 11:34:05;;;;;;;1.62;0.70;;;;;;;15.21;59.27;100794.46;1849790;77;21070;-43
2023/03/27 11:36:50;;;;;;;0.50;0.40;;;;;;;15.12;59.62;100808.25;1843965;76;21137;-42
2023/03/27 11:39:53;;;;;;;1.47;0.72;;;;;;;14.95;59.24;100804.75;1835246;78;21570;-42
2023/03/27 11:42:28;;;;;;;0.60;0.50;;;;;;;14.66;59.53;100808.58;1835523;78;21065;-43
2023/03/27 11:44:57;;;;;;;0.55;0.55;;;;;;;14.35;60.19;100820.39;1835485;78;21053;-43
2023/03/27 11:47:42;;;;;;;0.85;0.78;;;;;;;14.13;60.65;100820.23;1838785;76;21025;-45
2023/03/27 11:50:20;;;;;;;1.12;0.60;;;;;;;14.06;61.11;100825.45;1857588;76;21537;-43
2023/03/27 11:52:52;;;;;;;0.40;0.40;;;;;;;14.12;61.10;100829.09;1881688;76;21113;-41
2023/03/27 11:55:34;;;;;;;1.40;0.72;;;;;;;14.12;61.19;100843.66;1878475;76;21128;-42
2023/03/27 11:58:15;;;;;;;0.80;0.68;;;;;;;14.18;61.22;100848.62;1878142;76;21497;-43
2023/03/27 12:00:54;;;;;;;1.62;0.60;;;;;;;14.10;61.06;100842.89;1881322;75;21066;-43
2023/03/27 12:03:53;;;;;;;1.22;0.80;;;;;;;14.12;61.15;100842.81;1880856;76;21074;-43